sensor_id;sensor_type;location;lat;lon;timestamp;temperature;humidity
3051;DHT22;1535;51.098;6.414;2022-08-04T00:00:11;22.10;99.90
3051;DHT22;1535;51.098;6.414;2022-08-04T00:02:46;22.10;99.90
3051;DHT22;1535;51.098;6.414;2022-08-04T00:05:25;22.10;99.90
3051;DHT22;1535;51.098;6.414;2022-08-04T00:08:01;22.10;99.90
3051;DHT22;1535;51.098;6.414;2022-08-04T00:10:32;22.00;99.90
3051;DHT22;1535;51.098;6.414;2022-08-04T00:13:02;21.90;99.90
3051;DHT22;1535;51.098;6.414;2022-08-04T00:15:33;21.90;99.90
3051;DHT22;1535;51.098;6.414;2022-08-04T00:18:04;21.90;99.90
3051;DHT22;1535;51.098;6.414;2022-08-04T00:20:36;21.90;99.90
3051;DHT22;1535;51.098;6.414;2022-08-04T00:23:06;21.80;99.90
3051;DHT22;1535;51.098;6.414;2022-08-04T00:25:36;21.90;99.90
3051;DHT22;1535;51.098;6.414;2022-08-04T00:28:05;21.90;99.90
3051;DHT22;1535;51.098;6.414;2022-08-04T00:30:33;21.90;99.90
3051;DHT22;1535;51.098;6.414;2022-08-04T00:33:00;21.90;99.90
3051;DHT22;1535;51.098;6.414;2022-08-04T00:35:28;21.70;99.90
3051;DHT22;1535;51.098;6.414;2022-08-04T00:37:57;21.70;99.90
3051;DHT22;1535;51.098;6.414;2022-08-04T00:40:32;21.60;99.90
3051;DHT22;1535;51.098;6.414;2022-08-04T00:43:12;21.40;99.90
3051;DHT22;1535;51.098;6.414;2022-08-04T00:46:06;21.30;99.90
3051;DHT22;1535;51.098;6.414;2022-08-04T00:48:51;21.20;99.90
3051;DHT22;1535;51.098;6.414;2022-08-04T00:51:27;21.20;99.90
3051;DHT22;1535;51.098;6.414;2022-08-04T00:54:03;21.20;99.90
3051;DHT22;1535;51.098;6.414;2022-08-04T00:56:47;21.10;99.90
3051;DHT22;1535;51.098;6.414;2022-08-04T00:59:29;21.00;99.90
3051;DHT22;1535;51.098;6.414;2022-08-04T01:02:06;21.10;99.90
3051;DHT22;1535;51.098;6.414;2022-08-04T01:04:44;21.10;99.90
3051;DHT22;1535;51.098;6.414;2022-08-04T01:07:36;21.00;99.90
3051;DHT22;1535;51.098;6.414;2022-08-04T01:10:09;21.00;99.90
3051;DHT22;1535;51.098;6.414;2022-08-04T01:12:51;20.90;99.90
3051;DHT22;1535;51.098;6.414;2022-08-04T01:15:32;20.80;99.90
3051;DHT22;1535;51.098;6.414;2022-08-04T01:18:04;20.80;99.90
3051;DHT22;1535;51.098;6.414;2022-08-04T01:20:41;20.80;99.90
3051;DHT22;1535;51.098;6.414;2022-08-04T01:23:44;20.80;99.90
3051;DHT22;1535;51.098;6.414;2022-08-04T01:26:42;20.70;99.90
3051;DHT22;1535;51.098;6.414;2022-08-04T01:29:15;20.70;99.90
3051;DHT22;1535;51.098;6.414;2022-08-04T01:31:52;20.70;99.90
3051;DHT22;1535;51.098;6.414;2022-08-04T01:34:40;20.70;99.90
3051;DHT22;1535;51.098;6.414;2022-08-04T01:37:13;20.70;99.90
3051;DHT22;1535;51.098;6.414;2022-08-04T01:39:49;20.70;99.90
3051;DHT22;1535;51.098;6.414;2022-08-04T01:42:19;20.70;99.90
3051;DHT22;1535;51.098;6.414;2022-08-04T01:44:49;20.70;99.90
3051;DHT22;1535;51.098;6.414;2022-08-04T01:47:19;20.70;99.90
3051;DHT22;1535;51.098;6.414;2022-08-04T01:49:49;20.80;99.90
3051;DHT22;1535;51.098;6.414;2022-08-04T01:52:17;20.70;99.90
3051;DHT22;1535;51.098;6.414;2022-08-04T01:54:45;20.70;99.90
3051;DHT22;1535;51.098;6.414;2022-08-04T01:57:16;20.70;99.90
3051;DHT22;1535;51.098;6.414;2022-08-04T01:59:48;20.70;99.90
3051;DHT22;1535;51.098;6.414;2022-08-04T02:02:22;20.60;99.90
3051;DHT22;1535;51.098;6.414;2022-08-04T02:04:49;20.60;99.90
3051;DHT22;1535;51.098;6.414;2022-08-04T02:07:31;20.60;99.90
3051;DHT22;1535;51.098;6.414;2022-08-04T02:10:05;20.50;99.90
3051;DHT22;1535;51.098;6.414;2022-08-04T02:12:47;20.50;99.90
3051;DHT22;1535;51.098;6.414;2022-08-04T02:15:23;20.40;99.90
3051;DHT22;1535;51.098;6.414;2022-08-04T02:17:59;20.30;99.90
3051;DHT22;1535;51.098;6.414;2022-08-04T02:20:29;20.10;99.90
3051;DHT22;1535;51.098;6.414;2022-08-04T02:22:59;20.00;99.90
3051;DHT22;1535;51.098;6.414;2022-08-04T02:25:28;20.10;99.90
3051;DHT22;1535;51.098;6.414;2022-08-04T02:28:20;20.00;99.90
3051;DHT22;1535;51.098;6.414;2022-08-04T02:31:02;20.00;99.90
3051;DHT22;1535;51.098;6.414;2022-08-04T02:33:35;19.90;99.90
3051;DHT22;1535;51.098;6.414;2022-08-04T02:36:04;19.90;99.90
3051;DHT22;1535;51.098;6.414;2022-08-04T02:38:53;19.80;99.90
3051;DHT22;1535;51.098;6.414;2022-08-04T02:41:23;19.80;99.90
3051;DHT22;1535;51.098;6.414;2022-08-04T02:43:54;19.70;99.90
3051;DHT22;1535;51.098;6.414;2022-08-04T02:46:23;19.80;99.90
3051;DHT22;1535;51.098;6.414;2022-08-04T02:48:51;19.80;99.90
3051;DHT22;1535;51.098;6.414;2022-08-04T02:51:22;19.80;99.90
3051;DHT22;1535;51.098;6.414;2022-08-04T02:53:53;19.70;99.90
3051;DHT22;1535;51.098;6.414;2022-08-04T02:56:22;19.80;99.90
3051;DHT22;1535;51.098;6.414;2022-08-04T02:58:52;19.70;99.90
3051;DHT22;1535;51.098;6.414;2022-08-04T03:01:23;19.70;99.90
3051;DHT22;1535;51.098;6.414;2022-08-04T03:04:00;19.60;99.90
3051;DHT22;1535;51.098;6.414;2022-08-04T03:06:52;19.50;99.90
3051;DHT22;1535;51.098;6.414;2022-08-04T03:09:37;19.50;99.90
3051;DHT22;1535;51.098;6.414;2022-08-04T03:12:32;19.50;99.90
3051;DHT22;1535;51.098;6.414;2022-08-04T03:18:51;19.40;99.90
3051;DHT22;1535;51.098;6.414;2022-08-04T03:21:44;19.50;99.90
3051;DHT22;1535;51.098;6.414;2022-08-04T03:30:29;19.30;99.90
3051;DHT22;1535;51.098;6.414;2022-08-04T03:33:35;19.30;99.90
3051;DHT22;1535;51.098;6.414;2022-08-04T03:36:49;19.30;99.90
3051;DHT22;1535;51.098;6.414;2022-08-04T03:40:12;19.30;99.90
3051;DHT22;1535;51.098;6.414;2022-08-04T03:43:20;19.30;99.90
3051;DHT22;1535;51.098;6.414;2022-08-04T03:49:08;18.70;99.90
3051;DHT22;1535;51.098;6.414;2022-08-04T03:51:49;18.60;99.90
3051;DHT22;1535;51.098;6.414;2022-08-04T03:54:59;18.60;99.90
3051;DHT22;1535;51.098;6.414;2022-08-04T03:57:57;18.60;99.90
3051;DHT22;1535;51.098;6.414;2022-08-04T04:00:43;18.50;99.90
3051;DHT22;1535;51.098;6.414;2022-08-04T04:06:40;18.60;99.90
3051;DHT22;1535;51.098;6.414;2022-08-04T04:15:13;18.60;99.90
3051;DHT22;1535;51.098;6.414;2022-08-04T04:18:05;18.60;99.90
3051;DHT22;1535;51.098;6.414;2022-08-04T04:21:15;18.50;99.90
3051;DHT22;1535;51.098;6.414;2022-08-04T04:23:59;18.50;99.90
3051;DHT22;1535;51.098;6.414;2022-08-04T04:26:44;18.50;99.90
3051;DHT22;1535;51.098;6.414;2022-08-04T04:29:29;18.50;99.90
3051;DHT22;1535;51.098;6.414;2022-08-04T04:32:12;18.50;99.90
3051;DHT22;1535;51.098;6.414;2022-08-04T04:34:52;18.60;99.90
3051;DHT22;1535;51.098;6.414;2022-08-04T04:37:38;18.60;99.90
3051;DHT22;1535;51.098;6.414;2022-08-04T04:40:19;18.70;99.90
3051;DHT22;1535;51.098;6.414;2022-08-04T04:43:13;18.70;99.90
3051;DHT22;1535;51.098;6.414;2022-08-04T04:45:51;18.80;99.90
3051;DHT22;1535;51.098;6.414;2022-08-04T04:48:29;18.90;99.90
3051;DHT22;1535;51.098;6.414;2022-08-04T04:51:07;18.90;99.90
3051;DHT22;1535;51.098;6.414;2022-08-04T04:53:44;19.00;99.90
3051;DHT22;1535;51.098;6.414;2022-08-04T04:56:26;19.00;99.90
3051;DHT22;1535;51.098;6.414;2022-08-04T04:58:55;19.10;99.90
3051;DHT22;1535;51.098;6.414;2022-08-04T05:04:28;19.20;99.90
3051;DHT22;1535;51.098;6.414;2022-08-04T05:07:21;19.30;99.90
3051;DHT22;1535;51.098;6.414;2022-08-04T05:10:03;19.40;99.90
3051;DHT22;1535;51.098;6.414;2022-08-04T05:12:41;19.40;99.90
3051;DHT22;1535;51.098;6.414;2022-08-04T05:15:17;19.50;99.90
3051;DHT22;1535;51.098;6.414;2022-08-04T05:17:51;19.60;99.90
3051;DHT22;1535;51.098;6.414;2022-08-04T05:20:22;19.70;99.90
3051;DHT22;1535;51.098;6.414;2022-08-04T05:22:54;19.90;99.90
3051;DHT22;1535;51.098;6.414;2022-08-04T05:25:25;20.10;99.90
3051;DHT22;1535;51.098;6.414;2022-08-04T05:28:04;20.20;99.90
3051;DHT22;1535;51.098;6.414;2022-08-04T05:30:35;20.30;99.90
3051;DHT22;1535;51.098;6.414;2022-08-04T05:33:06;20.50;99.90
3051;DHT22;1535;51.098;6.414;2022-08-04T05:35:44;20.60;99.90
3051;DHT22;1535;51.098;6.414;2022-08-04T05:38:14;20.70;99.90
3051;DHT22;1535;51.098;6.414;2022-08-04T05:40:42;20.80;99.90
3051;DHT22;1535;51.098;6.414;2022-08-04T05:43:11;20.80;99.90
3051;DHT22;1535;51.098;6.414;2022-08-04T05:45:43;20.90;99.90
3051;DHT22;1535;51.098;6.414;2022-08-04T05:48:13;21.00;99.90
3051;DHT22;1535;51.098;6.414;2022-08-04T05:50:41;21.00;99.90
3051;DHT22;1535;51.098;6.414;2022-08-04T05:53:09;21.20;99.90
3051;DHT22;1535;51.098;6.414;2022-08-04T05:55:37;21.30;99.90
3051;DHT22;1535;51.098;6.414;2022-08-04T05:58:06;21.40;99.90
3051;DHT22;1535;51.098;6.414;2022-08-04T06:00:36;21.50;99.90
3051;DHT22;1535;51.098;6.414;2022-08-04T06:03:04;21.70;99.90
3051;DHT22;1535;51.098;6.414;2022-08-04T06:05:32;21.80;99.90
3051;DHT22;1535;51.098;6.414;2022-08-04T06:07:59;21.90;99.90
3051;DHT22;1535;51.098;6.414;2022-08-04T06:10:26;22.10;99.90
3051;DHT22;1535;51.098;6.414;2022-08-04T06:12:56;22.20;99.90
3051;DHT22;1535;51.098;6.414;2022-08-04T06:15:25;22.40;99.90
3051;DHT22;1535;51.098;6.414;2022-08-04T06:17:57;22.50;99.90
3051;DHT22;1535;51.098;6.414;2022-08-04T06:20:30;22.70;99.90
3051;DHT22;1535;51.098;6.414;2022-08-04T06:23:02;22.80;99.90
3051;DHT22;1535;51.098;6.414;2022-08-04T06:25:32;23.00;99.90
3051;DHT22;1535;51.098;6.414;2022-08-04T06:28:01;23.10;99.90
3051;DHT22;1535;51.098;6.414;2022-08-04T06:30:31;23.30;99.90
3051;DHT22;1535;51.098;6.414;2022-08-04T06:33:01;23.50;99.90
3051;DHT22;1535;51.098;6.414;2022-08-04T06:35:38;23.60;99.90
3051;DHT22;1535;51.098;6.414;2022-08-04T06:38:07;23.90;99.90
3051;DHT22;1535;51.098;6.414;2022-08-04T06:40:35;24.10;99.90
3051;DHT22;1535;51.098;6.414;2022-08-04T06:43:04;24.20;99.90
3051;DHT22;1535;51.098;6.414;2022-08-04T06:45:33;24.40;99.90
3051;DHT22;1535;51.098;6.414;2022-08-04T06:48:04;24.50;99.90
3051;DHT22;1535;51.098;6.414;2022-08-04T06:50:34;24.70;99.90
3051;DHT22;1535;51.098;6.414;2022-08-04T06:53:02;24.80;99.90
3051;DHT22;1535;51.098;6.414;2022-08-04T06:55:30;24.80;99.90
3051;DHT22;1535;51.098;6.414;2022-08-04T06:58:00;24.90;99.90
3051;DHT22;1535;51.098;6.414;2022-08-04T07:00:28;25.10;99.90
3051;DHT22;1535;51.098;6.414;2022-08-04T07:02:57;25.30;99.90
3051;DHT22;1535;51.098;6.414;2022-08-04T07:05:26;25.50;99.90
3051;DHT22;1535;51.098;6.414;2022-08-04T07:07:53;25.70;99.90
3051;DHT22;1535;51.098;6.414;2022-08-04T07:10:22;26.00;99.90
3051;DHT22;1535;51.098;6.414;2022-08-04T07:12:49;26.20;99.90
3051;DHT22;1535;51.098;6.414;2022-08-04T07:15:18;26.30;99.90
3051;DHT22;1535;51.098;6.414;2022-08-04T07:17:45;26.50;99.90
3051;DHT22;1535;51.098;6.414;2022-08-04T07:20:13;26.60;99.90
3051;DHT22;1535;51.098;6.414;2022-08-04T07:22:42;26.80;99.90
3051;DHT22;1535;51.098;6.414;2022-08-04T07:25:09;27.00;99.90
3051;DHT22;1535;51.098;6.414;2022-08-04T07:27:37;27.00;99.90
3051;DHT22;1535;51.098;6.414;2022-08-04T07:30:05;27.20;99.90
3051;DHT22;1535;51.098;6.414;2022-08-04T07:32:32;27.40;99.90
3051;DHT22;1535;51.098;6.414;2022-08-04T07:35:01;27.60;99.90
3051;DHT22;1535;51.098;6.414;2022-08-04T07:37:28;27.80;99.90
3051;DHT22;1535;51.098;6.414;2022-08-04T07:39:56;27.90;99.90
3051;DHT22;1535;51.098;6.414;2022-08-04T07:42:24;27.90;99.90
3051;DHT22;1535;51.098;6.414;2022-08-04T07:44:50;28.00;99.90
3051;DHT22;1535;51.098;6.414;2022-08-04T07:47:17;28.20;99.90
3051;DHT22;1535;51.098;6.414;2022-08-04T07:49:44;28.30;99.90
3051;DHT22;1535;51.098;6.414;2022-08-04T07:52:11;28.40;99.90
3051;DHT22;1535;51.098;6.414;2022-08-04T07:54:39;28.50;99.90
3051;DHT22;1535;51.098;6.414;2022-08-04T07:57:07;28.60;99.90
3051;DHT22;1535;51.098;6.414;2022-08-04T07:59:35;28.90;99.90
3051;DHT22;1535;51.098;6.414;2022-08-04T08:02:02;29.20;99.90
3051;DHT22;1535;51.098;6.414;2022-08-04T08:04:30;29.50;99.90
3051;DHT22;1535;51.098;6.414;2022-08-04T08:06:57;29.70;99.90
3051;DHT22;1535;51.098;6.414;2022-08-04T08:09:24;29.90;99.90
3051;DHT22;1535;51.098;6.414;2022-08-04T08:11:53;30.40;99.90
3051;DHT22;1535;51.098;6.414;2022-08-04T08:14:21;30.90;99.90
3051;DHT22;1535;51.098;6.414;2022-08-04T08:16:48;31.20;99.90
3051;DHT22;1535;51.098;6.414;2022-08-04T08:19:15;31.50;99.90
3051;DHT22;1535;51.098;6.414;2022-08-04T08:21:46;31.80;99.50
3051;DHT22;1535;51.098;6.414;2022-08-04T08:24:13;32.00;98.20
3051;DHT22;1535;51.098;6.414;2022-08-04T08:26:40;31.90;98.60
3051;DHT22;1535;51.098;6.414;2022-08-04T08:29:07;32.10;99.20
3051;DHT22;1535;51.098;6.414;2022-08-04T08:31:36;32.10;97.50
3051;DHT22;1535;51.098;6.414;2022-08-04T08:34:03;32.10;98.00
3051;DHT22;1535;51.098;6.414;2022-08-04T08:36:35;32.20;97.40
3051;DHT22;1535;51.098;6.414;2022-08-04T08:39:08;32.40;98.10
3051;DHT22;1535;51.098;6.414;2022-08-04T08:41:51;32.20;96.90
3051;DHT22;1535;51.098;6.414;2022-08-04T08:47:55;32.40;96.20
3051;DHT22;1535;51.098;6.414;2022-08-04T08:50:52;33.00;93.70
3051;DHT22;1535;51.098;6.414;2022-08-04T08:53:44;33.40;91.90
3051;DHT22;1535;51.098;6.414;2022-08-04T08:56:25;34.00;91.50
3051;DHT22;1535;51.098;6.414;2022-08-04T08:59:07;34.20;89.00
3051;DHT22;1535;51.098;6.414;2022-08-04T09:01:51;34.70;85.60
3051;DHT22;1535;51.098;6.414;2022-08-04T09:05:01;35.10;82.60
3051;DHT22;1535;51.098;6.414;2022-08-04T09:07:53;35.70;81.20
3051;DHT22;1535;51.098;6.414;2022-08-04T09:10:35;35.80;77.80
3051;DHT22;1535;51.098;6.414;2022-08-04T09:13:09;36.20;74.20
3051;DHT22;1535;51.098;6.414;2022-08-04T09:15:44;36.50;70.60
3051;DHT22;1535;51.098;6.414;2022-08-04T09:18:18;36.70;67.40
3051;DHT22;1535;51.098;6.414;2022-08-04T09:20:53;36.20;68.00
3051;DHT22;1535;51.098;6.414;2022-08-04T09:23:30;36.50;66.60
3051;DHT22;1535;51.098;6.414;2022-08-04T09:26:03;37.10;66.20
3051;DHT22;1535;51.098;6.414;2022-08-04T09:28:41;37.60;62.10
3051;DHT22;1535;51.098;6.414;2022-08-04T09:31:12;37.80;61.70
3051;DHT22;1535;51.098;6.414;2022-08-04T09:33:46;37.60;61.50
3051;DHT22;1535;51.098;6.414;2022-08-04T09:36:27;37.10;61.30
3051;DHT22;1535;51.098;6.414;2022-08-04T09:39:05;36.90;60.60
3051;DHT22;1535;51.098;6.414;2022-08-04T09:41:37;36.60;61.90
3051;DHT22;1535;51.098;6.414;2022-08-04T09:44:15;36.50;61.80
3051;DHT22;1535;51.098;6.414;2022-08-04T09:46:48;36.30;62.10
3051;DHT22;1535;51.098;6.414;2022-08-04T09:49:22;36.10;60.30
3051;DHT22;1535;51.098;6.414;2022-08-04T09:52:00;35.90;60.10
3051;DHT22;1535;51.098;6.414;2022-08-04T09:54:44;35.90;60.00
3051;DHT22;1535;51.098;6.414;2022-08-04T09:57:16;35.80;60.20
3051;DHT22;1535;51.098;6.414;2022-08-04T09:59:53;36.00;60.30
3051;DHT22;1535;51.098;6.414;2022-08-04T10:02:23;35.90;62.80
3051;DHT22;1535;51.098;6.414;2022-08-04T10:04:54;35.60;65.20
3051;DHT22;1535;51.098;6.414;2022-08-04T10:07:41;35.20;65.60
3051;DHT22;1535;51.098;6.414;2022-08-04T10:10:23;35.20;62.00
3051;DHT22;1535;51.098;6.414;2022-08-04T10:13:22;34.80;62.60
3051;DHT22;1535;51.098;6.414;2022-08-04T10:16:05;34.60;62.70
3051;DHT22;1535;51.098;6.414;2022-08-04T10:18:44;34.80;64.10
3051;DHT22;1535;51.098;6.414;2022-08-04T10:21:22;34.70;64.20
3051;DHT22;1535;51.098;6.414;2022-08-04T10:24:05;35.10;64.20
3051;DHT22;1535;51.098;6.414;2022-08-04T10:26:39;35.30;61.90
3051;DHT22;1535;51.098;6.414;2022-08-04T10:29:11;35.30;61.80
3051;DHT22;1535;51.098;6.414;2022-08-04T10:31:44;35.30;61.80
3051;DHT22;1535;51.098;6.414;2022-08-04T10:34:15;35.70;61.10
3051;DHT22;1535;51.098;6.414;2022-08-04T10:36:50;36.20;59.90
3051;DHT22;1535;51.098;6.414;2022-08-04T10:39:26;37.10;59.00
3051;DHT22;1535;51.098;6.414;2022-08-04T10:42:02;36.70;57.70
3051;DHT22;1535;51.098;6.414;2022-08-04T10:44:39;37.40;57.50
3051;DHT22;1535;51.098;6.414;2022-08-04T10:47:15;37.20;57.00
3051;DHT22;1535;51.098;6.414;2022-08-04T10:49:45;36.60;57.10
3051;DHT22;1535;51.098;6.414;2022-08-04T10:52:23;35.70;58.30
3051;DHT22;1535;51.098;6.414;2022-08-04T10:54:57;35.30;58.90
3051;DHT22;1535;51.098;6.414;2022-08-04T10:57:33;35.00;59.40
3051;DHT22;1535;51.098;6.414;2022-08-04T11:00:04;34.80;60.90
3051;DHT22;1535;51.098;6.414;2022-08-04T11:02:38;34.20;60.70
3051;DHT22;1535;51.098;6.414;2022-08-04T11:05:22;34.10;61.40
3051;DHT22;1535;51.098;6.414;2022-08-04T11:07:52;33.60;62.90
3051;DHT22;1535;51.098;6.414;2022-08-04T11:10:24;33.20;64.20
3051;DHT22;1535;51.098;6.414;2022-08-04T11:12:58;32.70;62.30
3051;DHT22;1535;51.098;6.414;2022-08-04T11:15:30;32.70;62.50
3051;DHT22;1535;51.098;6.414;2022-08-04T11:18:04;32.70;62.40
3051;DHT22;1535;51.098;6.414;2022-08-04T11:20:43;32.60;62.40
3051;DHT22;1535;51.098;6.414;2022-08-04T11:23:14;32.60;62.10
3051;DHT22;1535;51.098;6.414;2022-08-04T11:25:50;32.30;64.30
3051;DHT22;1535;51.098;6.414;2022-08-04T11:28:24;32.00;66.10
3051;DHT22;1535;51.098;6.414;2022-08-04T11:30:58;31.90;67.30
3051;DHT22;1535;51.098;6.414;2022-08-04T11:33:34;32.10;68.20
3051;DHT22;1535;51.098;6.414;2022-08-04T11:36:09;32.00;68.10
3051;DHT22;1535;51.098;6.414;2022-08-04T11:38:45;32.00;68.10
3051;DHT22;1535;51.098;6.414;2022-08-04T11:41:18;31.90;68.80
3051;DHT22;1535;51.098;6.414;2022-08-04T11:43:52;31.90;69.60
3051;DHT22;1535;51.098;6.414;2022-08-04T11:46:25;32.10;66.70
3051;DHT22;1535;51.098;6.414;2022-08-04T11:49:00;32.20;66.50
3051;DHT22;1535;51.098;6.414;2022-08-04T11:51:27;32.40;67.40
3051;DHT22;1535;51.098;6.414;2022-08-04T11:53:55;32.40;69.30
3051;DHT22;1535;51.098;6.414;2022-08-04T11:56:24;32.40;72.70
3051;DHT22;1535;51.098;6.414;2022-08-04T11:58:51;32.70;73.40
3051;DHT22;1535;51.098;6.414;2022-08-04T12:01:24;32.80;73.00
3051;DHT22;1535;51.098;6.414;2022-08-04T12:04:09;33.00;72.50
3051;DHT22;1535;51.098;6.414;2022-08-04T12:06:46;32.80;72.10
3051;DHT22;1535;51.098;6.414;2022-08-04T12:09:31;32.60;72.20
3051;DHT22;1535;51.098;6.414;2022-08-04T12:12:09;32.40;71.70
3051;DHT22;1535;51.098;6.414;2022-08-04T12:14:50;32.60;71.10
3051;DHT22;1535;51.098;6.414;2022-08-04T12:17:24;33.30;72.40
3051;DHT22;1535;51.098;6.414;2022-08-04T12:19:57;33.70;72.50
3051;DHT22;1535;51.098;6.414;2022-08-04T12:22:28;33.90;70.70
3051;DHT22;1535;51.098;6.414;2022-08-04T12:25:00;33.90;70.20
3051;DHT22;1535;51.098;6.414;2022-08-04T12:27:34;34.00;70.20
3051;DHT22;1535;51.098;6.414;2022-08-04T12:30:03;33.70;70.50
3051;DHT22;1535;51.098;6.414;2022-08-04T12:32:34;34.00;71.10
3051;DHT22;1535;51.098;6.414;2022-08-04T12:35:08;34.40;70.20
3051;DHT22;1535;51.098;6.414;2022-08-04T12:37:45;34.00;69.80
3051;DHT22;1535;51.098;6.414;2022-08-04T12:40:17;33.90;67.70
3051;DHT22;1535;51.098;6.414;2022-08-04T12:42:54;34.10;66.40
3051;DHT22;1535;51.098;6.414;2022-08-04T12:45:23;34.40;66.10
3051;DHT22;1535;51.098;6.414;2022-08-04T12:47:52;34.20;64.70
3051;DHT22;1535;51.098;6.414;2022-08-04T12:50:19;34.20;64.80
3051;DHT22;1535;51.098;6.414;2022-08-04T12:52:49;34.10;66.00
3051;DHT22;1535;51.098;6.414;2022-08-04T12:55:20;33.80;65.60
3051;DHT22;1535;51.098;6.414;2022-08-04T12:57:50;33.30;67.70
3051;DHT22;1535;51.098;6.414;2022-08-04T13:00:25;33.00;68.70
3051;DHT22;1535;51.098;6.414;2022-08-04T13:02:53;33.20;69.80
3051;DHT22;1535;51.098;6.414;2022-08-04T13:05:25;33.10;69.60
3051;DHT22;1535;51.098;6.414;2022-08-04T13:07:56;32.80;71.30
3051;DHT22;1535;51.098;6.414;2022-08-04T13:10:24;32.50;72.20
3051;DHT22;1535;51.098;6.414;2022-08-04T13:12:55;32.60;72.60
3051;DHT22;1535;51.098;6.414;2022-08-04T13:15:25;32.70;73.80
3051;DHT22;1535;51.098;6.414;2022-08-04T13:17:57;32.50;72.80
3051;DHT22;1535;51.098;6.414;2022-08-04T13:20:27;32.40;74.40
3051;DHT22;1535;51.098;6.414;2022-08-04T13:23:05;32.10;75.50
3051;DHT22;1535;51.098;6.414;2022-08-04T13:25:33;32.10;76.80
3051;DHT22;1535;51.098;6.414;2022-08-04T13:28:03;32.20;76.70
3051;DHT22;1535;51.098;6.414;2022-08-04T13:30:32;31.90;77.30
3051;DHT22;1535;51.098;6.414;2022-08-04T13:33:03;31.80;78.40
3051;DHT22;1535;51.098;6.414;2022-08-04T13:35:31;31.50;78.90
3051;DHT22;1535;51.098;6.414;2022-08-04T13:38:00;31.00;79.70
3051;DHT22;1535;51.098;6.414;2022-08-04T13:40:27;30.90;81.70
3051;DHT22;1535;51.098;6.414;2022-08-04T13:42:55;30.70;83.90
3051;DHT22;1535;51.098;6.414;2022-08-04T13:45:25;30.50;84.90
3051;DHT22;1535;51.098;6.414;2022-08-04T13:47:58;30.30;85.60
3051;DHT22;1535;51.098;6.414;2022-08-04T13:50:27;30.30;86.60
3051;DHT22;1535;51.098;6.414;2022-08-04T13:52:56;30.20;87.20
3051;DHT22;1535;51.098;6.414;2022-08-04T13:55:26;30.20;87.60
3051;DHT22;1535;51.098;6.414;2022-08-04T13:58:00;30.10;86.30
3051;DHT22;1535;51.098;6.414;2022-08-04T14:00:43;30.20;86.70
3051;DHT22;1535;51.098;6.414;2022-08-04T14:03:17;30.10;86.80
3051;DHT22;1535;51.098;6.414;2022-08-04T14:06:04;30.00;87.20
3051;DHT22;1535;51.098;6.414;2022-08-04T14:08:34;29.80;88.90
3051;DHT22;1535;51.098;6.414;2022-08-04T14:11:02;29.80;89.80
3051;DHT22;1535;51.098;6.414;2022-08-04T14:13:29;29.60;90.00
3051;DHT22;1535;51.098;6.414;2022-08-04T14:15:58;29.40;90.60
3051;DHT22;1535;51.098;6.414;2022-08-04T14:18:27;29.40;90.90
3051;DHT22;1535;51.098;6.414;2022-08-04T14:20:59;29.30;91.60
3051;DHT22;1535;51.098;6.414;2022-08-04T14:23:27;29.30;92.30
3051;DHT22;1535;51.098;6.414;2022-08-04T14:25:55;29.30;92.20
3051;DHT22;1535;51.098;6.414;2022-08-04T14:28:28;29.30;92.60
3051;DHT22;1535;51.098;6.414;2022-08-04T14:31:09;29.40;92.80
3051;DHT22;1535;51.098;6.414;2022-08-04T14:33:37;29.30;93.40
3051;DHT22;1535;51.098;6.414;2022-08-04T14:36:05;29.40;93.40
3051;DHT22;1535;51.098;6.414;2022-08-04T14:38:44;29.40;93.90
3051;DHT22;1535;51.098;6.414;2022-08-04T14:41:12;29.40;93.50
3051;DHT22;1535;51.098;6.414;2022-08-04T14:43:50;29.50;93.80
3051;DHT22;1535;51.098;6.414;2022-08-04T14:46:19;29.60;93.70
3051;DHT22;1535;51.098;6.414;2022-08-04T14:49:06;29.80;93.30
3051;DHT22;1535;51.098;6.414;2022-08-04T14:51:36;29.90;93.60
3051;DHT22;1535;51.098;6.414;2022-08-04T14:54:04;30.00;93.80
3051;DHT22;1535;51.098;6.414;2022-08-04T14:56:31;30.10;93.80
3051;DHT22;1535;51.098;6.414;2022-08-04T14:59:01;30.20;93.80
3051;DHT22;1535;51.098;6.414;2022-08-04T15:01:31;30.50;93.70
3051;DHT22;1535;51.098;6.414;2022-08-04T15:04:01;30.60;93.80
3051;DHT22;1535;51.098;6.414;2022-08-04T15:06:30;30.60;93.60
3051;DHT22;1535;51.098;6.414;2022-08-04T15:08:59;30.40;93.50
3051;DHT22;1535;51.098;6.414;2022-08-04T15:11:26;30.30;93.60
3051;DHT22;1535;51.098;6.414;2022-08-04T15:13:54;30.20;94.30
3051;DHT22;1535;51.098;6.414;2022-08-04T15:16:23;30.20;93.90
3051;DHT22;1535;51.098;6.414;2022-08-04T15:18:52;29.90;94.00
3051;DHT22;1535;51.098;6.414;2022-08-04T15:21:20;29.90;94.40
3051;DHT22;1535;51.098;6.414;2022-08-04T15:23:47;29.70;94.50
3051;DHT22;1535;51.098;6.414;2022-08-04T15:26:17;29.50;94.80
3051;DHT22;1535;51.098;6.414;2022-08-04T15:28:49;29.50;95.40
3051;DHT22;1535;51.098;6.414;2022-08-04T15:31:19;29.50;96.10
3051;DHT22;1535;51.098;6.414;2022-08-04T15:33:47;29.50;95.70
3051;DHT22;1535;51.098;6.414;2022-08-04T15:36:21;29.40;95.40
3051;DHT22;1535;51.098;6.414;2022-08-04T15:38:58;29.60;95.30
3051;DHT22;1535;51.098;6.414;2022-08-04T15:41:34;29.60;95.80
3051;DHT22;1535;51.098;6.414;2022-08-04T15:44:20;29.90;95.50
3051;DHT22;1535;51.098;6.414;2022-08-04T15:47:09;30.20;95.00
3051;DHT22;1535;51.098;6.414;2022-08-04T15:49:37;30.60;95.10
3051;DHT22;1535;51.098;6.414;2022-08-04T15:52:10;31.00;94.70
3051;DHT22;1535;51.098;6.414;2022-08-04T15:54:37;31.30;94.90
3051;DHT22;1535;51.098;6.414;2022-08-04T15:57:05;31.60;94.40
3051;DHT22;1535;51.098;6.414;2022-08-04T16:00:00;31.70;94.70
3051;DHT22;1535;51.098;6.414;2022-08-04T16:02:38;31.40;94.90
3051;DHT22;1535;51.098;6.414;2022-08-04T16:05:35;31.20;95.30
3051;DHT22;1535;51.098;6.414;2022-08-04T16:08:15;31.50;95.10
3051;DHT22;1535;51.098;6.414;2022-08-04T16:10:44;31.30;95.80
3051;DHT22;1535;51.098;6.414;2022-08-04T16:13:13;31.50;95.30
3051;DHT22;1535;51.098;6.414;2022-08-04T16:15:46;31.20;96.00
3051;DHT22;1535;51.098;6.414;2022-08-04T16:18:38;31.30;96.50
3051;DHT22;1535;51.098;6.414;2022-08-04T16:21:16;31.70;96.40
3051;DHT22;1535;51.098;6.414;2022-08-04T16:24:02;32.10;96.10
3051;DHT22;1535;51.098;6.414;2022-08-04T16:26:47;32.50;94.70
3051;DHT22;1535;51.098;6.414;2022-08-04T16:29:39;32.90;94.30
3051;DHT22;1535;51.098;6.414;2022-08-04T16:32:20;33.00;93.40
3051;DHT22;1535;51.098;6.414;2022-08-04T16:34:52;32.80;94.10
3051;DHT22;1535;51.098;6.414;2022-08-04T16:37:22;33.00;93.90
3051;DHT22;1535;51.098;6.414;2022-08-04T16:40:23;33.20;93.40
3051;DHT22;1535;51.098;6.414;2022-08-04T16:42:52;33.30;92.60
3051;DHT22;1535;51.098;6.414;2022-08-04T16:45:18;32.90;92.80
3051;DHT22;1535;51.098;6.414;2022-08-04T16:48:05;33.20;92.90
3051;DHT22;1535;51.098;6.414;2022-08-04T16:50:33;33.70;92.00
3051;DHT22;1535;51.098;6.414;2022-08-04T16:53:10;33.70;91.50
3051;DHT22;1535;51.098;6.414;2022-08-04T16:55:45;33.60;91.80
3051;DHT22;1535;51.098;6.414;2022-08-04T16:58:12;33.80;91.10
3051;DHT22;1535;51.098;6.414;2022-08-04T17:00:39;33.60;91.50
3051;DHT22;1535;51.098;6.414;2022-08-04T17:03:08;33.30;91.70
3051;DHT22;1535;51.098;6.414;2022-08-04T17:05:36;33.30;91.20
3051;DHT22;1535;51.098;6.414;2022-08-04T17:08:04;33.50;91.20
3051;DHT22;1535;51.098;6.414;2022-08-04T17:10:34;33.20;90.80
3051;DHT22;1535;51.098;6.414;2022-08-04T17:13:20;33.10;91.10
3051;DHT22;1535;51.098;6.414;2022-08-04T17:15:48;33.00;90.80
3051;DHT22;1535;51.098;6.414;2022-08-04T17:18:18;32.90;90.90